Love Boat — OT3861 — position and weather

sailwx.info

Track history (hours):
 
Tides and Currents Weather Stations Pressure Air Temp Water Temp Dewpoint Dewpoint Depression Visibility Wind Speed Wind Dir Waves Ship Positions

Love Boat

Last reported at 2014-Jul-30 09:28 UTC. Time now 2014-Aug-02 00:20 UTC.
Position N 51°47' E 006°19'.

Length 110 m; draft 3 m.

Type: Ship. MMSI: 205386190.

Date/timePositionNaut miles runAvg speedWind from/ knotsBaromVisibWave heightAir tempDewpointWater temp
2014-Jul-30 09:28N 51°47' E 006°19'26 4.2
2014-Jul-30 03:13N 51°54' E 005°39'4 5.6
2014-Jul-30 02:33N 51°54' E 005°33'4 3.1
2014-Jul-30 01:25N 51°54' E 005°27'0 0.5
2014-Jul-30 00:33N 51°55' E 005°27'0 0.0
2014-Jul-29 23:33N 51°55' E 005°27'0 0.0
2014-Jul-29 22:33N 51°55' E 005°27'0 0.1
2014-Jul-29 21:33N 51°55' E 005°27'6 5.9
2014-Jul-29 20:33N 51°58' E 005°19'5 5.1
2014-Jul-29 19:33N 52°00' E 005°12'6 6.3
2014-Jul-29 18:33N 52°05' E 005°05'12 5.9
2014-Jul-29 16:33N 52°16' E 005°01'6 5.9
2014-Jul-29 15:33N 52°22' E 004°57'6 5.7
2014-Jul-29 14:34N 52°25' E 004°50'1 0.7
2014-Jul-29 13:33N 52°25' E 004°49'0 0.0
2014-Jul-29 12:33N 52°25' E 004°49'0 0.0
2014-Jul-29 11:33N 52°25' E 004°49'0 0.0
2014-Jul-29 10:33N 52°25' E 004°49'0 0.0
2014-Jul-29 09:34N 52°25' E 004°49'0 0.0
2014-Jul-29 08:06N 52°25' E 004°49'0 0.0
2014-Jul-29 07:32N 52°25' E 004°49'0 0.0
2014-Jul-29 06:34N 52°25' E 004°49'0 0.0
2014-Jul-29 05:33N 52°25' E 004°49'0 0.0
2014-Jul-29 04:34N 52°25' E 004°49'0 0.1
2014-Jul-29 03:34N 52°25' E 004°49'4 4.0
2014-Jul-29 02:34N 52°23' E 004°55'7 7.3
2014-Jul-29 01:33N 52°17' E 005°01'8 8.5
2014-Jul-29 00:33N 52°08' E 005°02'8 8.0
2014-Jul-28 23:34N 52°01' E 005°07'4 4.5
2014-Jul-28 22:34N 51°59' E 005°00'6 6.3
2014-Jul-28 21:33N 51°56' E 004°51'7 7.2
2014-Jul-28 20:34N 51°53' E 004°40'6 5.6
2014-Jul-28 19:33N 51°48' E 004°38'12 5.7
2014-Jul-28 17:23N 51°40' E 004°22'7 8.4
2014-Jul-28 16:33N 51°40' E 004°11'4 3.5
2014-Jul-28 15:25N 51°38' E 004°05'6 7.2
2014-Jul-28 14:33N 51°34' E 003°58'7 6.5
2014-Jul-28 13:33N 51°27' E 004°01'5 5.3
2014-Jul-28 12:33N 51°23' E 003°57'5 5.0
2014-Jul-28 11:29N 51°20' E 003°49'7 7.1
2014-Jul-28 10:33N 51°13' E 003°48'5 4.9
2014-Jul-28 09:33N 51°09' E 003°48'0 0.0
2014-Jul-28 08:19N 51°09' E 003°48'0 0.0
2014-Jul-28 07:30N 51°09' E 003°48'0 0.0
2014-Jul-28 06:32N 51°09' E 003°48'0 0.0
2014-Jul-28 05:33N 51°09' E 003°48'0 0.0
2014-Jul-28 04:31N 51°09' E 003°48'0 0.0
2014-Jul-28 03:33N 51°09' E 003°48'0 0.0
2014-Jul-28 02:31N 51°09' E 003°48'0 0.0
2014-Jul-28 01:33N 51°09' E 003°48'0 0.0
2014-Jul-28 00:32N 51°09' E 003°48'0 0.0
2014-Jul-27 23:33N 51°09' E 003°48'0 0.0
2014-Jul-27 22:27N 51°09' E 003°48'0 0.0
2014-Jul-27 21:31N 51°09' E 003°48'2 2.2
2014-Jul-27 20:33N 51°11' E 003°48'6 5.8
2014-Jul-27 19:33N 51°16' E 003°50'4 3.8
2014-Jul-27 18:31N 51°20' E 003°49'6 6.4
2014-Jul-27 17:33N 51°24' E 003°57'5 5.3
2014-Jul-27 16:33N 51°29' E 004°00'7 6.6
2014-Jul-27 15:33N 51°35' E 003°58'10 5.1
2014-Jul-27 13:33N 51°39' E 004°13'7 7.1
2014-Jul-27 12:30N 51°41' E 004°24'3 2.6
2014-Jul-27 11:31N 51°42' E 004°29'7 7.4
2014-Jul-27 10:33N 51°43' E 004°40'8 7.5
2014-Jul-27 09:33N 51°48' E 004°50'7 7.3
2014-Jul-27 08:33N 51°49' E 005°01'8 8.0
2014-Jul-27 07:33N 51°49' E 005°14'7 7.1
2014-Jul-27 06:33N 51°51' E 005°25'8 8.1
2014-Jul-27 05:33N 51°54' E 005°37'9 8.7
2014-Jul-27 04:31N 51°51' E 005°51'  
Track history (hours):
 
Tides and Currents Weather Stations Pressure Air Temp Water Temp Dewpoint Dewpoint Depression Visibility Wind Speed Wind Dir Waves Ship Positions

Love Boat

Last reported at 2014-Jul-30 09:28 UTC. Time now 2014-Aug-02 00:20 UTC.
Position N 51°47' E 006°19'.

Length 110 m; draft 3 m.

Type: Ship. MMSI: 205386190.

Date/timePositionNaut miles runAvg speedWind from/ knotsBaromVisibWave heightAir tempDewpointWater temp
2014-Jul-30 09:28N 51°47' E 006°19'26 4.2
2014-Jul-30 03:13N 51°54' E 005°39'4 5.6
2014-Jul-30 02:33N 51°54' E 005°33'4 3.1
2014-Jul-30 01:25N 51°54' E 005°27'0 0.5
2014-Jul-30 00:33N 51°55' E 005°27'0 0.0
2014-Jul-29 23:33N 51°55' E 005°27'0 0.0
2014-Jul-29 22:33N 51°55' E 005°27'0 0.1
2014-Jul-29 21:33N 51°55' E 005°27'6 5.9
2014-Jul-29 20:33N 51°58' E 005°19'5 5.1
2014-Jul-29 19:33N 52°00' E 005°12'6 6.3
2014-Jul-29 18:33N 52°05' E 005°05'12 5.9
2014-Jul-29 16:33N 52°16' E 005°01'6 5.9
2014-Jul-29 15:33N 52°22' E 004°57'6 5.7
2014-Jul-29 14:34N 52°25' E 004°50'1 0.7
2014-Jul-29 13:33N 52°25' E 004°49'0 0.0
2014-Jul-29 12:33N 52°25' E 004°49'0 0.0
2014-Jul-29 11:33N 52°25' E 004°49'0 0.0
2014-Jul-29 10:33N 52°25' E 004°49'0 0.0
2014-Jul-29 09:34N 52°25' E 004°49'0 0.0
2014-Jul-29 08:06N 52°25' E 004°49'0 0.0
2014-Jul-29 07:32N 52°25' E 004°49'0 0.0
2014-Jul-29 06:34N 52°25' E 004°49'0 0.0
2014-Jul-29 05:33N 52°25' E 004°49'0 0.0
2014-Jul-29 04:34N 52°25' E 004°49'0 0.1
2014-Jul-29 03:34N 52°25' E 004°49'4 4.0
2014-Jul-29 02:34N 52°23' E 004°55'7 7.3
2014-Jul-29 01:33N 52°17' E 005°01'8 8.5
2014-Jul-29 00:33N 52°08' E 005°02'8 8.0
2014-Jul-28 23:34N 52°01' E 005°07'4 4.5
2014-Jul-28 22:34N 51°59' E 005°00'6 6.3
2014-Jul-28 21:33N 51°56' E 004°51'7 7.2
2014-Jul-28 20:34N 51°53' E 004°40'6 5.6
2014-Jul-28 19:33N 51°48' E 004°38'12 5.7
2014-Jul-28 17:23N 51°40' E 004°22'7 8.4
2014-Jul-28 16:33N 51°40' E 004°11'4 3.5
2014-Jul-28 15:25N 51°38' E 004°05'6 7.2
2014-Jul-28 14:33N 51°34' E 003°58'7 6.5
2014-Jul-28 13:33N 51°27' E 004°01'5 5.3
2014-Jul-28 12:33N 51°23' E 003°57'5 5.0
2014-Jul-28 11:29N 51°20' E 003°49'7 7.1
2014-Jul-28 10:33N 51°13' E 003°48'5 4.9
2014-Jul-28 09:33N 51°09' E 003°48'0 0.0
2014-Jul-28 08:19N 51°09' E 003°48'0 0.0
2014-Jul-28 07:30N 51°09' E 003°48'0 0.0
2014-Jul-28 06:32N 51°09' E 003°48'0 0.0
2014-Jul-28 05:33N 51°09' E 003°48'0 0.0
2014-Jul-28 04:31N 51°09' E 003°48'0 0.0
2014-Jul-28 03:33N 51°09' E 003°48'0 0.0
2014-Jul-28 02:31N 51°09' E 003°48'0 0.0
2014-Jul-28 01:33N 51°09' E 003°48'0 0.0
2014-Jul-28 00:32N 51°09' E 003°48'0 0.0
2014-Jul-27 23:33N 51°09' E 003°48'0 0.0
2014-Jul-27 22:27N 51°09' E 003°48'0 0.0
2014-Jul-27 21:31N 51°09' E 003°48'2 2.2
2014-Jul-27 20:33N 51°11' E 003°48'6 5.8
2014-Jul-27 19:33N 51°16' E 003°50'4 3.8
2014-Jul-27 18:31N 51°20' E 003°49'6 6.4
2014-Jul-27 17:33N 51°24' E 003°57'5 5.3
2014-Jul-27 16:33N 51°29' E 004°00'7 6.6
2014-Jul-27 15:33N 51°35' E 003°58'10 5.1
2014-Jul-27 13:33N 51°39' E 004°13'7 7.1
2014-Jul-27 12:30N 51°41' E 004°24'3 2.6
2014-Jul-27 11:31N 51°42' E 004°29'7 7.4
2014-Jul-27 10:33N 51°43' E 004°40'8 7.5
2014-Jul-27 09:33N 51°48' E 004°50'7 7.3
2014-Jul-27 08:33N 51°49' E 005°01'8 8.0
2014-Jul-27 07:33N 51°49' E 005°14'7 7.1
2014-Jul-27 06:33N 51°51' E 005°25'8 8.1
2014-Jul-27 05:33N 51°54' E 005°37'9 8.7
2014-Jul-27 04:31N 51°51' E 005°51'  

Dump ship's entire track history